KBLI

Bellingham International Airport

Bellingham, Washington, USA
METAR KBLI 230753Z AUTO 18005KT 10SM CLR 14/11 A2981 RMK AO2 SLP101 T01440111 402390083
Observed Flight Rules
May-23 @ 07:53 UTC (54 minutes ago) Visual Flight Rules
Wind Visibility Clouds
180° at 5 knots 10 miles
  • Clear skies
Temperatures Readings
Current 14°C / 57°F
Dewpoint 11°C / 52°F
Humidity 82%
Altimeter 29.81" Hg
Pressure 1010.1 hPa
Elevation 50
METAR KBLI 230753Z AUTO 18005KT 10SM CLR 14/11 A2981 RMK AO2 SLP101 T01440111 402390083
Observed Flight Rules
May-23 @ 07:53 UTC
(54 minutes ago)
VFR
Wind Visibility
180° at 5 knots 10 miles
Clouds
  • Clear skies
Temperature Dewpoint
14°C / 57°F 11°C / 52°F
Humidity Altimeter Pressure
82% 29.81" Hg 1010.1 hPa